Time;durP1;ratioP1;P1;durP2;ratioP2;P2;SDS_P1;SDS_P2;PMS_P1;PMS_P2;Temp;Humidity;BMP_temperature;BMP_pressure;BME280_temperature;BME280_humidity;BME280_pressure;Samples;Min_cycle;Max_cycle;Signal;HPM_P1;HPM_P2
2022/11/11 00:01:20;;;;;;;18.97;12.17;;;10.40;99.90;;;;;;4972957;28;20203;-64
2022/11/11 00:03:48;;;;;;;19.03;12.00;;;10.40;99.90;;;;;;4972956;28;20646;-65
2022/11/11 00:06:17;;;;;;;18.87;12.03;;;10.40;99.90;;;;;;5012899;28;20218;-64
2022/11/11 00:08:47;;;;;;;18.00;11.50;;;10.40;99.90;;;;;;4991030;28;20199;-65
2022/11/11 00:11:17;;;;;;;23.53;12.17;;;10.30;99.90;;;;;;4992271;28;20202;-64
2022/11/11 00:13:45;;;;;;;20.80;11.97;;;10.30;99.90;;;;;;4982241;28;20215;-64
2022/11/11 00:16:15;;;;;;;22.33;11.60;;;10.30;99.90;;;;;;5010573;28;20190;-64
2022/11/11 00:27:12;;;;;;;15.87;10.73;;;10.40;99.90;;;;;;4975105;28;20696;-65
2022/11/11 00:29:45;;;;;;;21.70;11.50;;;10.40;99.90;;;;;;4979387;28;20213;-64
2022/11/11 00:32:23;;;;;;;21.93;11.07;;;10.40;99.90;;;;;;4978879;28;20195;-65
2022/11/11 00:37:39;;;;;;;21.27;10.77;;;10.40;99.90;;;;;;4991032;28;20214;-64
2022/11/11 00:40:46;;;;;;;14.67;10.67;;;10.30;99.90;;;;;;4974155;28;20211;-64
2022/11/11 00:43:16;;;;;;;16.83;10.97;;;10.30;99.90;;;;;;4990811;28;20598;-65
2022/11/11 00:45:44;;;;;;;19.43;10.70;;;10.30;99.90;;;;;;4973198;28;20204;-64
2022/11/11 00:50:58;;;;;;;22.00;10.87;;;10.30;99.90;;;;;;4980379;28;20282;-64
2022/11/11 00:53:30;;;;;;;16.03;11.07;;;10.30;99.90;;;;;;4989743;28;20195;-64
2022/11/11 00:55:59;;;;;;;19.43;11.10;;;10.30;99.90;;;;;;5018079;28;20219;-64
2022/11/11 00:58:28;;;;;;;22.67;11.47;;;10.30;99.90;;;;;;4985066;28;20196;-64
2022/11/11 01:00:57;;;;;;;19.87;11.57;;;10.30;99.90;;;;;;4978976;28;20215;-64
2022/11/11 01:03:25;;;;;;;18.90;10.83;;;10.30;99.90;;;;;;4972147;28;20219;-64
2022/11/11 01:05:54;;;;;;;16.70;11.00;;;10.30;99.90;;;;;;4980631;28;20219;-64
2022/11/11 01:08:59;;;;;;;21.13;11.50;;;10.30;99.90;;;;;;4987097;28;20210;-64
2022/11/11 01:11:28;;;;;;;20.97;11.47;;;10.30;99.90;;;;;;4987180;28;20207;-64
2022/11/11 01:13:57;;;;;;;23.57;11.37;;;10.30;99.90;;;;;;4999040;28;20742;-64
2022/11/11 01:16:46;;;;;;;19.17;10.53;;;10.30;99.90;;;;;;4988218;28;20195;-64
2022/11/11 01:19:14;;;;;;;21.70;11.70;;;10.20;99.90;;;;;;4991070;28;20231;-64
2022/11/11 01:21:42;;;;;;;18.33;11.43;;;10.30;99.90;;;;;;4980890;28;20199;-64
2022/11/11 01:24:11;;;;;;;22.07;11.57;;;10.30;99.90;;;;;;4979712;28;20207;-64
2022/11/11 01:26:41;;;;;;;18.10;11.07;;;10.20;99.90;;;;;;5033568;28;20203;-64
2022/11/11 01:29:13;;;;;;;18.77;10.93;;;10.20;99.90;;;;;;4983688;28;20284;-64
2022/11/11 01:31:41;;;;;;;23.30;11.40;;;10.20;99.90;;;;;;4975634;28;20226;-64
2022/11/11 01:34:12;;;;;;;20.50;11.67;;;10.20;99.90;;;;;;4987593;28;20608;-64
2022/11/11 01:36:40;;;;;;;21.70;12.57;;;10.20;99.90;;;;;;4992095;28;20191;-64
2022/11/11 01:39:09;;;;;;;22.50;11.90;;;10.20;99.90;;;;;;4990745;28;20690;-63
2022/11/11 01:41:38;;;;;;;19.77;11.63;;;10.20;99.90;;;;;;4972662;28;20218;-65
2022/11/11 01:44:20;;;;;;;18.03;11.33;;;10.20;99.90;;;;;;5011020;28;20225;-64
2022/11/11 01:46:52;;;;;;;19.83;12.03;;;10.20;99.90;;;;;;4978436;28;20280;-64
2022/11/11 01:49:29;;;;;;;20.23;10.93;;;10.10;99.90;;;;;;5010544;28;20221;-64
2022/11/11 01:52:05;;;;;;;24.00;11.37;;;10.10;99.90;;;;;;4987539;28;20199;-64
2022/11/11 01:54:37;;;;;;;15.93;10.97;;;10.10;99.90;;;;;;4978924;28;20237;-64
2022/11/11 01:57:11;;;;;;;20.93;10.90;;;10.10;99.90;;;;;;4977862;28;20209;-64
2022/11/11 01:59:46;;;;;;;19.13;11.60;;;10.10;99.90;;;;;;4984445;28;20191;-64
2022/11/11 02:02:26;;;;;;;21.93;11.37;;;10.00;99.90;;;;;;4974743;28;20207;-64
2022/11/11 02:09:15;;;;;;;20.07;11.27;;;10.10;99.90;;;;;;4985823;28;20607;-64
2022/11/11 02:14:38;;;;;;;22.73;13.20;;;10.10;99.90;;;;;;4990713;28;20198;-64
2022/11/11 02:17:12;;;;;;;19.30;11.47;;;10.00;99.90;;;;;;4974822;28;20222;-64
2022/11/11 02:19:48;;;;;;;20.70;12.10;;;10.10;99.90;;;;;;4976040;28;20227;-64
2022/11/11 02:22:25;;;;;;;20.50;12.70;;;10.00;99.90;;;;;;4981443;28;20191;-64
2022/11/11 02:24:58;;;;;;;24.17;12.53;;;10.00;99.90;;;;;;4971402;28;20783;-65
2022/11/11 02:27:29;;;;;;;21.97;12.57;;;9.90;99.90;;;;;;5009200;28;20207;-64
2022/11/11 02:30:01;;;;;;;23.90;12.53;;;9.90;99.90;;;;;;4971795;28;20200;-64
2022/11/11 02:32:30;;;;;;;21.57;12.67;;;9.90;99.90;;;;;;4982069;28;20596;-64
2022/11/11 02:34:58;;;;;;;20.60;12.50;;;9.90;99.90;;;;;;4986384;28;20202;-64
2022/11/11 02:37:27;;;;;;;23.23;12.43;;;9.90;99.90;;;;;;4972663;28;20282;-64
2022/11/11 02:40:01;;;;;;;26.50;12.77;;;9.90;99.90;;;;;;4973093;28;20275;-64
2022/11/11 02:43:10;;;;;;;27.17;13.73;;;9.90;99.90;;;;;;4972926;28;20208;-64
2022/11/11 02:45:39;;;;;;;25.47;12.63;;;9.90;99.90;;;;;;4973410;28;20245;-64
2022/11/11 02:48:07;;;;;;;21.70;11.87;;;9.90;99.90;;;;;;4971262;28;20223;-64
2022/11/11 02:50:36;;;;;;;22.03;11.83;;;9.80;99.90;;;;;;4975432;28;20278;-64
2022/11/11 02:53:05;;;;;;;17.50;11.50;;;9.90;99.90;;;;;;4974081;28;20188;-64
2022/11/11 02:55:34;;;;;;;20.87;11.23;;;9.90;99.90;;;;;;4990110;28;20214;-64
2022/11/11 02:58:03;;;;;;;17.57;12.00;;;9.80;99.90;;;;;;4983892;28;20196;-64
2022/11/11 03:00:32;;;;;;;21.67;12.33;;;9.80;99.90;;;;;;4988713;28;20191;-64
2022/11/11 03:03:00;;;;;;;19.67;11.90;;;9.80;99.90;;;;;;4977809;28;20730;-64
2022/11/11 03:05:29;;;;;;;18.00;11.50;;;9.70;99.90;;;;;;4981950;28;20275;-64
2022/11/11 03:07:57;;;;;;;21.93;12.00;;;9.70;99.90;;;;;;4988646;28;20235;-64
2022/11/11 03:10:26;;;;;;;20.80;12.83;;;9.70;99.90;;;;;;4992902;28;20633;-64
2022/11/11 03:12:56;;;;;;;19.67;12.13;;;9.70;99.90;;;;;;4993131;28;20199;-64
2022/11/11 03:15:27;;;;;;;17.27;11.10;;;9.70;99.90;;;;;;4980408;28;20290;-64
2022/11/11 03:17:54;;;;;;;23.27;11.13;;;9.60;99.90;;;;;;4990409;28;20183;-64
2022/11/11 03:23:10;;;;;;;16.77;10.27;;;9.70;99.90;;;;;;5017567;28;20202;-64
2022/11/11 03:25:39;;;;;;;19.77;11.23;;;9.60;99.90;;;;;;4985662;28;20200;-64
2022/11/11 03:28:11;;;;;;;18.20;10.70;;;9.60;99.90;;;;;;4991405;28;20226;-64
2022/11/11 03:30:42;;;;;;;16.87;10.30;;;9.60;99.90;;;;;;4987057;28;20191;-64
2022/11/11 03:33:12;;;;;;;14.83;10.47;;;9.60;99.90;;;;;;4978055;28;20197;-64
2022/11/11 03:35:41;;;;;;;16.60;10.17;;;9.60;99.90;;;;;;4991438;28;20191;-64
2022/11/11 03:38:22;;;;;;;18.20;10.53;;;9.60;99.90;;;;;;4981565;28;20196;-64
2022/11/11 03:40:53;;;;;;;16.97;10.40;;;9.60;99.90;;;;;;4981431;28;20188;-64
2022/11/11 03:43:24;;;;;;;20.87;11.07;;;9.60;99.90;;;;;;4975652;28;20642;-64
2022/11/11 03:45:55;;;;;;;21.10;11.13;;;9.60;99.90;;;;;;4986180;28;20230;-64
2022/11/11 03:48:24;;;;;;;19.30;11.00;;;9.60;99.90;;;;;;4982322;28;20301;-64
2022/11/11 03:50:52;;;;;;;18.20;11.17;;;9.60;99.90;;;;;;4982881;28;20214;-64
2022/11/11 03:53:22;;;;;;;15.90;11.13;;;9.60;99.90;;;;;;4977537;28;20646;-64
2022/11/11 03:55:52;;;;;;;20.17;12.17;;;9.60;99.90;;;;;;4986437;28;20230;-64
2022/11/11 03:58:22;;;;;;;22.63;11.93;;;9.60;99.90;;;;;;4988283;28;20195;-64
2022/11/11 04:00:51;;;;;;;17.00;11.43;;;9.60;99.90;;;;;;4983321;28;20195;-64
2022/11/11 04:12:14;;;;;;;19.03;12.10;;;9.60;99.90;;;;;;4982812;28;20226;-64
2022/11/11 04:17:30;;;;;;;19.00;11.60;;;9.60;99.90;;;;;;4973008;28;20623;-64
2022/11/11 04:22:44;;;;;;;24.93;11.90;;;9.60;99.90;;;;;;4990632;28;20191;-64
2022/11/11 04:30:42;;;;;;;20.17;11.93;;;9.50;99.90;;;;;;4971314;28;20204;-64
2022/11/11 04:33:10;;;;;;;20.67;11.23;;;9.40;99.90;;;;;;4988573;28;20209;-64
2022/11/11 04:35:39;;;;;;;18.03;10.70;;;9.50;99.90;;;;;;4982406;28;20203;-64
2022/11/11 04:41:03;;;;;;;17.33;10.83;;;9.40;99.90;;;;;;4975114;28;20199;-64
2022/11/11 04:45:26;;;;;;;20.03;11.60;;;9.40;99.90;;;;;;4988303;28;20194;-64
2022/11/11 04:46:24;;;;;;;19.90;12.40;;;9.30;99.90;;;;;;4991778;28;20203;-64
2022/11/11 04:48:52;;;;;;;17.77;12.40;;;9.30;99.90;;;;;;4990425;28;20214;-64
2022/11/11 04:52:24;;;;;;;23.00;13.13;;;9.30;99.90;;;;;;4989966;28;20669;-64
2022/11/11 04:54:08;;;;;;;23.57;13.30;;;9.40;99.90;;;;;;4971750;28;20200;-64
2022/11/11 04:56:46;;;;;;;18.93;12.40;;;9.40;99.90;;;;;;4978561;28;20196;-64
2022/11/11 04:59:19;;;;;;;21.70;12.53;;;9.30;99.90;;;;;;4975671;28;20232;-64
2022/11/11 05:04:39;;;;;;;24.37;12.80;;;9.40;99.90;;;;;;5054984;28;20188;-64
2022/11/11 05:09:55;;;;;;;20.80;12.40;;;9.30;99.90;;;;;;4985620;28;20209;-64
2022/11/11 05:12:24;;;;;;;18.77;12.73;;;9.30;99.90;;;;;;4971203;28;20207;-64
2022/11/11 05:25:24;;;;;;;19.60;12.43;;;9.10;99.90;;;;;;4953659;28;20224;-64
2022/11/11 05:26:13;;;;;;;19.40;11.70;;;9.10;99.90;;;;;;4987663;28;20657;-64
2022/11/11 05:28:41;;;;;;;20.50;11.83;;;9.10;99.90;;;;;;4978136;28;20226;-64
2022/11/11 05:31:10;;;;;;;20.20;12.20;;;9.10;99.90;;;;;;4977612;28;20600;-64
2022/11/11 05:33:39;;;;;;;18.70;11.37;;;9.10;99.90;;;;;;4986442;28;20199;-64
2022/11/11 05:36:08;;;;;;;22.60;12.07;;;9.10;99.90;;;;;;4986221;28;20567;-64
2022/11/11 05:38:37;;;;;;;21.37;12.40;;;9.10;99.90;;;;;;4992964;28;20224;-64
2022/11/11 05:41:05;;;;;;;16.60;12.53;;;9.10;99.90;;;;;;4989781;28;20194;-64
2022/11/11 05:43:33;;;;;;;22.63;12.23;;;9.00;99.90;;;;;;4991143;28;20194;-64
2022/11/11 05:46:03;;;;;;;21.07;12.90;;;9.10;99.90;;;;;;5071145;28;20191;-64
2022/11/11 05:48:32;;;;;;;23.20;13.07;;;9.10;99.90;;;;;;4990053;28;20673;-64
2022/11/11 05:51:01;;;;;;;24.17;13.07;;;9.10;99.90;;;;;;4990203;28;20198;-64
2022/11/11 05:53:30;;;;;;;20.20;12.83;;;9.10;99.90;;;;;;4979433;28;20199;-64
2022/11/11 05:55:58;;;;;;;26.13;13.47;;;9.10;99.90;;;;;;4984493;28;20256;-64
2022/11/11 05:58:26;;;;;;;20.20;12.40;;;9.00;99.90;;;;;;4983377;28;20195;-64
2022/11/11 06:00:55;;;;;;;21.30;12.67;;;9.00;99.90;;;;;;5018863;28;20676;-64
2022/11/11 06:03:41;;;;;;;24.30;12.73;;;9.00;99.90;;;;;;4991423;28;20199;-64
2022/11/11 06:06:12;;;;;;;19.53;11.40;;;9.00;99.90;;;;;;4987285;28;20499;-64
2022/11/11 06:09:18;;;;;;;22.27;13.23;;;9.00;99.90;;;;;;5000561;28;20233;-64
2022/11/11 06:11:47;;;;;;;22.63;12.67;;;9.00;99.90;;;;;;4971252;28;20198;-64
2022/11/11 06:14:15;;;;;;;23.30;13.50;;;9.00;99.90;;;;;;4982359;28;20199;-64
2022/11/11 06:16:44;;;;;;;18.40;12.37;;;9.00;99.90;;;;;;4989068;28;20203;-64
2022/11/11 06:19:12;;;;;;;27.13;13.10;;;9.00;99.90;;;;;;5018535;28;20225;-64
2022/11/11 06:21:57;;;;;;;24.10;13.17;;;9.00;99.90;;;;;;5018123;28;20198;-64
2022/11/11 06:24:25;;;;;;;18.27;12.10;;;9.00;99.90;;;;;;4985326;28;20290;-64
2022/11/11 06:26:54;;;;;;;18.03;11.40;;;9.00;99.90;;;;;;4992665;28;20274;-64
2022/11/11 06:29:23;;;;;;;20.00;12.67;;;8.90;99.90;;;;;;4982028;28;20569;-64
2022/11/11 06:31:52;;;;;;;20.40;12.73;;;8.90;99.90;;;;;;4980485;28;20624;-64
2022/11/11 06:34:20;;;;;;;20.70;12.82;;;8.90;99.90;;;;;;4988177;28;20448;-64
2022/11/11 06:36:50;;;;;;;18.63;11.43;;;8.90;99.90;;;;;;4982730;28;20191;-65
2022/11/11 06:39:19;;;;;;;16.80;11.47;;;8.90;99.90;;;;;;4986185;28;20557;-64
2022/11/11 06:41:47;;;;;;;20.63;11.57;;;8.90;99.90;;;;;;4979305;28;20199;-64
2022/11/11 06:44:15;;;;;;;19.17;11.57;;;8.90;99.90;;;;;;4997912;28;20199;-64
2022/11/11 06:46:44;;;;;;;18.00;11.57;;;8.80;99.90;;;;;;4991510;28;20198;-64
2022/11/11 06:49:12;;;;;;;20.10;12.20;;;8.90;99.90;;;;;;4990926;28;20207;-64
2022/11/11 06:51:40;;;;;;;20.23;11.97;;;8.80;99.90;;;;;;4993491;28;20275;-64
2022/11/11 06:54:10;;;;;;;22.77;12.37;;;8.80;99.90;;;;;;4979395;28;20651;-64
2022/11/11 06:56:38;;;;;;;19.23;12.07;;;8.80;99.90;;;;;;4989581;28;20201;-64
2022/11/11 06:59:06;;;;;;;19.37;11.27;;;8.80;99.90;;;;;;4978368;28;20202;-64
2022/11/11 07:01:35;;;;;;;17.77;11.43;;;8.80;99.90;;;;;;4982476;28;20230;-64
2022/11/11 07:04:06;;;;;;;17.57;10.60;;;8.80;99.90;;;;;;4984266;28;20206;-64
2022/11/11 07:06:34;;;;;;;18.90;10.30;;;8.80;99.90;;;;;;5022040;28;20187;-64
2022/11/11 07:09:03;;;;;;;17.47;9.90;;;8.80;99.90;;;;;;4987982;28;20230;-64
2022/11/11 07:11:32;;;;;;;13.17;9.53;;;8.70;99.90;;;;;;4989321;28;20203;-64
2022/11/11 07:14:01;;;;;;;13.17;8.87;;;8.80;99.90;;;;;;4972250;28;20203;-64
2022/11/11 07:16:29;;;;;;;17.47;9.80;;;8.80;99.90;;;;;;4984394;28;20205;-64
2022/11/11 07:18:58;;;;;;;15.93;9.60;;;8.80;99.90;;;;;;4974159;28;20240;-64
2022/11/11 07:21:26;;;;;;;15.17;9.03;;;8.80;99.90;;;;;;4975997;28;21742;-64
2022/11/11 07:23:54;;;;;;;12.77;8.87;;;8.80;99.90;;;;;;4982004;28;20194;-64
2022/11/11 07:26:23;;;;;;;13.87;8.63;;;8.80;99.90;;;;;;4976907;28;20190;-64
2022/11/11 07:28:52;;;;;;;13.53;8.83;;;8.80;99.90;;;;;;4979819;28;20554;-64
2022/11/11 07:31:21;;;;;;;13.83;8.83;;;8.90;99.90;;;;;;4977831;28;20202;-64
2022/11/11 07:33:49;;;;;;;13.93;9.27;;;8.90;99.90;;;;;;4981897;28;20287;-64
2022/11/11 07:36:17;;;;;;;13.20;8.47;;;9.00;99.90;;;;;;4984328;28;20195;-64
2022/11/11 07:38:46;;;;;;;16.57;9.20;;;9.00;99.90;;;;;;4985155;28;20203;-64
2022/11/11 07:41:14;;;;;;;12.93;9.07;;;8.90;99.90;;;;;;4991187;28;20194;-64
2022/11/11 07:43:42;;;;;;;13.07;8.70;;;9.00;99.90;;;;;;4985884;28;20642;-64
2022/11/11 07:46:12;;;;;;;15.87;8.90;;;9.00;99.90;;;;;;4987740;28;20199;-64
2022/11/11 07:48:40;;;;;;;16.73;8.43;;;8.90;99.90;;;;;;4985602;28;20546;-64
2022/11/11 07:51:09;;;;;;;16.23;8.90;;;8.90;99.90;;;;;;4989018;28;20215;-64
2022/11/11 07:53:38;;;;;;;15.50;8.50;;;9.00;99.90;;;;;;4978546;28;20191;-64
2022/11/11 07:56:06;;;;;;;11.80;7.83;;;9.10;99.90;;;;;;4986414;28;20231;-64
2022/11/11 07:58:35;;;;;;;15.60;8.00;;;9.10;99.90;;;;;;4991580;28;20206;-64
2022/11/11 08:01:04;;;;;;;13.50;8.13;;;9.10;99.90;;;;;;4978018;28;20569;-63
2022/11/11 08:03:49;;;;;;;9.97;7.37;;;9.10;99.90;;;;;;4979618;28;20258;-64
2022/11/11 08:06:18;;;;;;;14.90;7.90;;;9.10;99.90;;;;;;4984460;28;20277;-64
2022/11/11 08:08:51;;;;;;;16.27;8.17;;;9.10;99.90;;;;;;4976524;28;20203;-64
2022/11/11 08:13:39;;;;;;;11.43;7.70;;;9.10;99.90;;;;;;4987350;28;20214;-64
2022/11/11 08:14:07;;;;;;;10.17;7.73;;;9.10;99.90;;;;;;4985154;28;20206;-64
2022/11/11 08:16:35;;;;;;;13.90;7.77;;;9.10;99.90;;;;;;4972510;28;20188;-64
2022/11/11 08:19:05;;;;;;;10.20;7.27;;;9.10;99.90;;;;;;4977775;28;20238;-64
2022/11/11 08:21:33;;;;;;;11.87;7.03;;;9.20;99.90;;;;;;5005814;28;20188;-64
2022/11/11 08:24:02;;;;;;;7.73;6.73;;;9.30;99.90;;;;;;4986049;28;20203;-64
2022/11/11 08:26:52;;;;;;;9.07;6.67;;;9.30;99.90;;;;;;4991942;28;20194;-64
2022/11/11 08:29:21;;;;;;;11.97;6.80;;;9.30;99.90;;;;;;4984260;28;20192;-64
2022/11/11 08:31:49;;;;;;;11.30;7.37;;;9.30;99.90;;;;;;4983982;28;20199;-64
2022/11/11 08:34:18;;;;;;;10.90;6.90;;;9.30;99.90;;;;;;4979276;28;20283;-63
2022/11/11 08:36:47;;;;;;;11.23;6.60;;;9.30;99.90;;;;;;4972823;28;20534;-64
2022/11/11 08:39:15;;;;;;;11.33;6.27;;;9.30;99.90;;;;;;4991729;28;20653;-64
2022/11/11 08:41:44;;;;;;;10.77;6.83;;;9.30;99.90;;;;;;4991750;28;20198;-64
2022/11/11 08:44:12;;;;;;;12.50;6.87;;;9.40;99.90;;;;;;4971980;28;20188;-64
2022/11/11 08:46:40;;;;;;;8.27;6.47;;;9.40;99.90;;;;;;4975467;28;20199;-64
2022/11/11 08:49:10;;;;;;;9.50;6.33;;;9.40;99.90;;;;;;4972398;28;20188;-64
2022/11/11 08:51:39;;;;;;;12.37;6.53;;;9.50;99.90;;;;;;4971770;28;20233;-64
2022/11/11 08:54:12;;;;;;;9.10;6.60;;;9.50;99.90;;;;;;4976972;28;20195;-64
2022/11/11 08:56:41;;;;;;;10.43;6.60;;;9.50;99.90;;;;;;4975877;28;20203;-64
2022/11/11 08:59:10;;;;;;;13.50;7.00;;;9.60;99.90;;;;;;4990339;28;20282;-64
2022/11/11 09:01:38;;;;;;;10.00;6.10;;;9.50;99.90;;;;;;4984907;28;20314;-64
2022/11/11 09:04:07;;;;;;;9.27;6.30;;;9.50;99.90;;;;;;4992148;28;20193;-64
2022/11/11 09:06:57;;;;;;;10.27;7.10;;;9.60;99.90;;;;;;4976954;28;20202;-64
2022/11/11 09:09:26;;;;;;;10.37;6.40;;;9.70;99.90;;;;;;4980461;28;20210;-64
2022/11/11 09:11:54;;;;;;;7.43;6.37;;;9.80;99.90;;;;;;4978302;28;20215;-64
2022/11/11 09:14:22;;;;;;;8.37;6.07;;;9.80;99.90;;;;;;4990669;28;20233;-64
2022/11/11 09:16:51;;;;;;;9.23;6.63;;;9.90;99.90;;;;;;4978283;28;20214;-64
2022/11/11 09:19:19;;;;;;;7.13;6.30;;;9.90;99.90;;;;;;4981156;28;20237;-64
2022/11/11 09:21:48;;;;;;;10.93;6.43;;;9.90;99.90;;;;;;4988804;28;20644;-64
2022/11/11 09:24:17;;;;;;;11.73;6.27;;;9.80;99.90;;;;;;4984486;28;20210;-64
2022/11/11 09:26:47;;;;;;;9.23;6.50;;;9.80;99.90;;;;;;4980869;28;20199;-64
2022/11/11 09:29:16;;;;;;;7.80;6.20;;;9.70;99.90;;;;;;4989869;28;20644;-64
2022/11/11 09:31:44;;;;;;;14.43;6.97;;;9.80;99.90;;;;;;4985207;28;20221;-64
2022/11/11 09:34:14;;;;;;;12.77;6.77;;;9.80;99.90;;;;;;4989913;28;20271;-64
2022/11/11 09:36:42;;;;;;;15.60;6.97;;;9.90;99.90;;;;;;4984883;28;20205;-64
2022/11/11 09:39:10;;;;;;;14.43;6.43;;;10.00;99.90;;;;;;4999638;28;20203;-64
2022/11/11 09:41:53;;;;;;;12.53;6.77;;;10.20;99.90;;;;;;4980107;28;20192;-64
2022/11/11 09:44:41;;;;;;;10.07;7.23;;;10.40;99.90;;;;;;4984934;28;20264;-64
2022/11/11 09:47:17;;;;;;;10.67;7.03;;;10.50;99.90;;;;;;4979568;28;20199;-64
2022/11/11 09:49:58;;;;;;;10.93;7.07;;;10.70;99.90;;;;;;4978046;28;20203;-64
2022/11/11 09:52:31;;;;;;;11.73;6.87;;;10.90;99.90;;;;;;4978538;28;20655;-64
2022/11/11 09:55:03;;;;;;;9.83;7.27;;;11.20;99.90;;;;;;4990445;28;20219;-64
2022/11/11 09:57:38;;;;;;;9.33;6.80;;;11.40;99.90;;;;;;4989467;28;20649;-64
2022/11/11 10:00:15;;;;;;;10.70;7.43;;;11.70;99.90;;;;;;4993228;28;20623;-64
2022/11/11 10:02:52;;;;;;;12.23;7.40;;;11.80;99.90;;;;;;4985110;28;20200;-65
2022/11/11 10:05:27;;;;;;;12.43;7.77;;;12.00;99.90;;;;;;4990393;28;20195;-64
2022/11/11 10:08:01;;;;;;;11.83;7.87;;;12.20;99.90;;;;;;5013914;28;20193;-65
2022/11/11 10:10:40;;;;;;;10.70;7.83;;;12.50;99.90;;;;;;4987468;28;20206;-65
2022/11/11 10:13:14;;;;;;;15.53;8.33;;;12.70;99.90;;;;;;4991027;28;20229;-65
2022/11/11 10:15:54;;;;;;;12.80;7.70;;;12.80;99.90;;;;;;4964330;28;20233;-65
2022/11/11 10:18:46;;;;;;;12.27;8.00;;;12.70;99.90;;;;;;4983557;28;20565;-65
2022/11/11 10:21:21;;;;;;;11.70;8.23;;;12.90;99.90;;;;;;4984917;28;20196;-65
2022/11/11 10:23:55;;;;;;;10.53;7.93;;;12.80;99.90;;;;;;4984078;28;20267;-64
2022/11/11 10:26:32;;;;;;;10.70;8.03;;;12.70;99.90;;;;;;4976697;28;20203;-64
2022/11/11 10:29:03;;;;;;;11.10;8.23;;;12.70;99.90;;;;;;4974462;28;20191;-64
2022/11/11 10:31:32;;;;;;;14.37;7.90;;;12.70;99.90;;;;;;5004749;28;20765;-64
2022/11/11 10:34:03;;;;;;;11.23;8.13;;;12.70;99.90;;;;;;4991086;28;20213;-64
2022/11/11 10:36:33;;;;;;;11.13;8.03;;;12.80;99.90;;;;;;4991500;28;20206;-64
2022/11/11 10:39:05;;;;;;;13.63;8.40;;;12.80;99.90;;;;;;4979148;28;20199;-64
2022/11/11 10:41:38;;;;;;;11.00;8.07;;;12.90;99.90;;;;;;5005681;28;20195;-65
2022/11/11 10:44:21;;;;;;;11.07;8.17;;;12.90;99.90;;;;;;4976623;28;20207;-64
2022/11/11 10:47:01;;;;;;;11.03;8.37;;;12.90;99.90;;;;;;4980226;28;20196;-64
2022/11/11 10:49:33;;;;;;;12.03;7.97;;;12.90;99.90;;;;;;4990050;28;20195;-65
2022/11/11 10:52:06;;;;;;;12.60;8.53;;;13.00;99.90;;;;;;4993200;28;20305;-64
2022/11/11 10:54:39;;;;;;;10.67;8.23;;;12.90;99.90;;;;;;4974776;28;20589;-64
2022/11/11 10:57:15;;;;;;;11.10;8.20;;;12.90;99.90;;;;;;4992846;28;20691;-65
2022/11/11 10:59:57;;;;;;;10.23;7.63;;;13.00;99.90;;;;;;4991820;28;20537;-65
2022/11/11 11:02:31;;;;;;;13.27;8.03;;;13.20;99.90;;;;;;4978696;28;20196;-65
2022/11/11 11:05:13;;;;;;;9.87;7.20;;;13.20;99.90;;;;;;5024906;28;20669;-64
2022/11/11 11:07:46;;;;;;;12.93;7.73;;;13.30;99.90;;;;;;4989270;28;20205;-64
2022/11/11 11:10:19;;;;;;;14.23;8.17;;;13.50;99.90;;;;;;4984256;28;20191;-65
2022/11/11 11:12:52;;;;;;;10.90;7.70;;;13.60;99.90;;;;;;5009542;28;20204;-65
2022/11/11 11:15:25;;;;;;;9.50;7.37;;;13.70;99.90;;;;;;4998089;28;20547;-65
2022/11/11 11:17:58;;;;;;;10.30;7.50;;;13.60;99.90;;;;;;5035422;28;20222;-65
2022/11/11 11:20:28;;;;;;;10.60;7.27;;;13.70;99.90;;;;;;4988639;28;20195;-65
2022/11/11 11:23:00;;;;;;;9.10;6.57;;;13.80;99.90;;;;;;4975060;28;20582;-65
2022/11/11 11:25:32;;;;;;;7.60;6.47;;;14.00;99.90;;;;;;4982594;28;20203;-65
2022/11/11 11:28:11;;;;;;;10.47;6.97;;;14.10;99.90;;;;;;5000259;28;20194;-65
2022/11/11 11:30:57;;;;;;;8.83;6.80;;;14.30;99.90;;;;;;5005694;28;20282;-65
2022/11/11 11:33:25;;;;;;;7.60;6.37;;;14.00;99.90;;;;;;5016652;28;20214;-65
2022/11/11 11:35:54;;;;;;;12.07;6.80;;;13.90;99.90;;;;;;5071357;27;20651;-64
2022/11/11 11:38:41;;;;;;;11.37;6.77;;;14.00;99.90;;;;;;4989323;28;20542;-65
2022/11/11 11:41:09;;;;;;;8.20;6.60;;;14.10;99.90;;;;;;4986062;28;20188;-65
2022/11/11 11:43:39;;;;;;;7.83;6.27;;;14.10;99.90;;;;;;4984570;28;20199;-65
2022/11/11 11:46:26;;;;;;;7.83;6.23;;;14.10;99.90;;;;;;4989523;28;20519;-65
2022/11/11 11:49:19;;;;;;;8.20;6.50;;;14.10;99.90;;;;;;4987646;28;20210;-65
2022/11/11 11:51:56;;;;;;;9.93;7.07;;;14.00;99.90;;;;;;5016697;28;20216;-65
2022/11/11 11:58:17;;;;;;;8.70;6.37;;;13.90;99.90;;;;;;4983461;28;20261;-64
2022/11/11 12:00:59;;;;;;;9.83;6.20;;;14.00;99.90;;;;;;4985837;28;20208;-64
2022/11/11 12:04:05;;;;;;;10.47;6.63;;;14.30;99.90;;;;;;4983310;28;20211;-64
2022/11/11 12:06:47;;;;;;;14.60;6.37;;;14.20;99.90;;;;;;4988515;28;20205;-65
2022/11/11 12:09:27;;;;;;;8.83;6.03;;;14.20;99.90;;;;;;4983327;28;20355;-64
2022/11/11 12:12:04;;;;;;;9.57;6.53;;;14.30;99.90;;;;;;4980161;28;20214;-65
2022/11/11 12:14:50;;;;;;;8.87;6.27;;;14.30;99.90;;;;;;4983948;28;20194;-65
2022/11/11 12:17:30;;;;;;;7.83;6.50;;;14.30;99.90;;;;;;5014251;28;20202;-65
2022/11/11 12:20:11;;;;;;;10.43;6.17;;;14.40;99.90;;;;;;4993403;28;20235;-65
2022/11/11 12:22:57;;;;;;;8.67;6.30;;;14.30;99.90;;;;;;4982433;28;20283;-64
2022/11/11 12:25:42;;;;;;;9.57;6.30;;;14.40;99.90;;;;;;4985914;28;20253;-67
2022/11/11 12:28:21;;;;;;;7.30;6.33;;;14.50;99.90;;;;;;4982514;28;20225;-65
2022/11/11 12:30:56;;;;;;;9.80;6.70;;;14.50;99.90;;;;;;4979118;28;20200;-64
2022/11/11 12:34:00;;;;;;;10.30;6.60;;;14.60;99.90;;;;;;4986646;28;20224;-65
2022/11/11 12:36:36;;;;;;;8.83;6.33;;;14.70;99.90;;;;;;4976984;28;20200;-65
2022/11/11 12:39:22;;;;;;;7.37;5.63;;;14.80;99.90;;;;;;4987774;28;20195;-64
2022/11/11 12:42:08;;;;;;;8.73;6.67;;;14.70;99.90;;;;;;4984111;28;20197;-65
2022/11/11 12:44:46;;;;;;;12.70;6.83;;;14.80;99.90;;;;;;4981796;28;20284;-65
2022/11/11 12:47:29;;;;;;;11.37;6.40;;;14.70;99.90;;;;;;4985681;28;20210;-65
2022/11/11 12:50:08;;;;;;;8.43;6.67;;;14.60;99.90;;;;;;4988081;28;20204;-64
2022/11/11 12:52:47;;;;;;;8.33;6.53;;;14.60;99.90;;;;;;4975167;28;20606;-64
2022/11/11 12:55:24;;;;;;;8.83;6.40;;;14.50;99.90;;;;;;4976050;28;20216;-65
2022/11/11 12:58:21;;;;;;;6.33;5.73;;;14.50;99.90;;;;;;4982806;28;20195;-65
2022/11/11 13:01:04;;;;;;;8.90;6.33;;;14.50;99.90;;;;;;4987893;28;20197;-64
2022/11/11 13:03:55;;;;;;;9.57;6.40;;;14.40;99.90;;;;;;4986880;28;20694;-64
2022/11/11 13:06:47;;;;;;;10.77;7.23;;;14.20;99.90;;;;;;4967868;28;20199;-65
2022/11/11 13:09:29;;;;;;;10.27;6.07;;;14.00;99.90;;;;;;4977714;28;20203;-61
2022/11/11 13:12:07;;;;;;;8.40;5.97;;;14.00;99.90;;;;;;4973959;28;20227;-63
2022/11/11 13:15:03;;;;;;;8.07;6.33;;;13.90;99.90;;;;;;4983094;28;20203;-65
2022/11/11 13:17:32;;;;;;;10.87;6.47;;;13.90;99.90;;;;;;4974657;28;20218;-65
2022/11/11 13:20:05;;;;;;;12.40;6.00;;;13.90;99.90;;;;;;4990884;28;20235;-65
2022/11/11 13:22:34;;;;;;;5.97;5.37;;;14.00;99.90;;;;;;4994501;28;20194;-65
2022/11/11 13:25:05;;;;;;;7.77;5.33;;;14.00;99.90;;;;;;5010600;28;20565;-64
2022/11/11 13:27:43;;;;;;;5.97;5.17;;;14.00;99.90;;;;;;4993778;28;20206;-64
2022/11/11 13:30:36;;;;;;;6.70;4.97;;;14.00;99.90;;;;;;4988118;28;20233;-65
2022/11/11 13:33:09;;;;;;;5.53;4.77;;;14.00;99.90;;;;;;5026976;28;20218;-65
2022/11/11 13:35:42;;;;;;;5.50;4.67;;;14.00;99.90;;;;;;4987447;28;20191;-65
2022/11/11 13:38:22;;;;;;;5.73;4.73;;;14.00;99.90;;;;;;4997710;28;20221;-65
2022/11/11 13:40:53;;;;;;;4.47;4.17;;;13.90;99.90;;;;;;5044798;28;20652;-65
2022/11/11 13:43:26;;;;;;;5.53;3.90;;;13.90;99.90;;;;;;4975152;28;20196;-65
2022/11/11 13:45:57;;;;;;;4.13;3.83;;;13.90;99.90;;;;;;4975866;28;20202;-64
2022/11/11 13:48:28;;;;;;;3.93;3.63;;;13.80;99.90;;;;;;4985089;28;20202;-65
2022/11/11 13:51:26;;;;;;;4.10;3.80;;;13.70;99.90;;;;;;4987893;28;20396;-65
2022/11/11 13:53:54;;;;;;;3.73;3.50;;;13.70;99.90;;;;;;4981111;28;20218;-65
2022/11/11 13:56:25;;;;;;;4.10;3.70;;;13.70;99.90;;;;;;4971844;28;20542;-65
2022/11/11 13:58:57;;;;;;;3.77;3.47;;;13.70;99.90;;;;;;4968891;28;20195;-65
2022/11/11 14:01:34;;;;;;;6.03;4.17;;;13.70;99.90;;;;;;4979401;28;20206;-65
2022/11/11 14:04:09;;;;;;;4.70;3.60;;;13.70;99.90;;;;;;4981392;28;20677;-65
2022/11/11 14:06:53;;;;;;;4.23;3.83;;;13.70;99.90;;;;;;4975463;28;20199;-65
2022/11/11 14:09:57;;;;;;;10.70;3.67;;;13.70;99.90;;;;;;4985382;28;20202;-65
2022/11/11 14:12:50;;;;;;;5.80;3.70;;;13.70;99.90;;;;;;4988542;28;20309;-65
2022/11/11 14:15:38;;;;;;;4.40;4.00;;;13.70;99.90;;;;;;5054499;28;20777;-65